• vieta
  • image
  • image
  • image

Šiandien

Penktadienis, 25 Balandis 2014

Orų prognozė

Šiauliai 2 °C
   

Orų prognozė aviacijai

[source: ADDS]
METAR
EYSA 250050Z 06002KT CAVOK 02/M02 Q1027 =
TAF
TAF EYSA 242300Z 2500/2509 06006KT CAVOK =
SR / SS: 03:00 / 17:51 UTC (EYSA 2014-04-25)

Lankytojai

Mes turime 1 svečią online